sim
Sign-in with your pilot id or email,
or register
Callsign
Passwort

Schedule Details

Flight Number: RYR1818
Departure: Thessaloniki International Airport (LGTS) at 14:55
Arrival: Eindhoven Airport (EHEH) at 18:00
Route: Ryanair Passenger Schedule. Enter filed route here before submitting Pirep.

Weather Information
Getting current METAR information for LGTS 211220Z 34013KT 9999 FEW030 16/00 Q1022 NOSIG
Getting current METAR information for EHEH 211225Z AUTO 23012KT 200V270 9999 OVC045 12/07 Q1027 BLU 23011KT 9999 BKN045 BKN060

Schedule Frequency

Route Map